Terminal Aerodrome Forecast
Issued by NWS Sioux Falls, SD

Home | Current Version | Previous Version | Text Only | Print | Product List | Glossary On
Versions: 1 2 3 4 5 6 7 8 9 10 11 12 13
000
FTUS43 KFSD 210520
TAFHON
TAF
KHON 210520Z 2106/2206 32008KT P6SM SKC
     FM211700 34012KT P6SM SCT045
     FM212300 36005KT P6SM SKC
     FM220200 VRB03KT P6SM SKC=

USA.gov is the U.S. government's official web portal to all federal, state and local government web resources and services.